sensor_id;sensor_type;location;lat;lon;timestamp;pressure;altitude;pressure_sealevel;temperature;humidity
83896;BME280;74045;42.812;74.638;2024-03-06T00:01:52;91062.50;;;-1.86;69.56
83896;BME280;74045;42.812;74.638;2024-03-06T00:04:18;91086.13;;;-1.75;69.52
83896;BME280;74045;42.812;74.638;2024-03-06T00:06:43;91087.31;;;-1.73;70.27
83896;BME280;74045;42.812;74.638;2024-03-06T00:09:09;91083.75;;;-1.81;70.13
83896;BME280;74045;42.812;74.638;2024-03-06T00:11:35;90993.63;;;-2.40;70.49
83896;BME280;74045;42.812;74.638;2024-03-06T00:14:03;91083.84;;;-1.77;70.74
83896;BME280;74045;42.812;74.638;2024-03-06T00:16:32;91089.47;;;-1.75;70.83
83896;BME280;74045;42.812;74.638;2024-03-06T00:18:58;91080.41;;;-1.93;70.14
83896;BME280;74045;42.812;74.638;2024-03-06T00:21:24;90964.63;;;-2.58;70.89
83896;BME280;74045;42.812;74.638;2024-03-06T00:23:49;91073.41;;;-1.81;70.34
83896;BME280;74045;42.812;74.638;2024-03-06T00:26:15;90980.47;;;-2.47;70.47
83896;BME280;74045;42.812;74.638;2024-03-06T00:28:41;91072.00;;;-1.90;70.24
83896;BME280;74045;42.812;74.638;2024-03-06T00:31:07;91089.78;;;-1.76;69.61
83896;BME280;74045;42.812;74.638;2024-03-06T00:33:33;91096.56;;;-1.72;70.83
83896;BME280;74045;42.812;74.638;2024-03-06T00:35:58;91092.81;;;-1.74;70.25
83896;BME280;74045;42.812;74.638;2024-03-06T00:38:24;91104.91;;;-1.78;69.88
83896;BME280;74045;42.812;74.638;2024-03-06T00:40:50;91102.97;;;-1.82;69.99
83896;BME280;74045;42.812;74.638;2024-03-06T00:43:16;91096.06;;;-1.90;69.68
83896;BME280;74045;42.812;74.638;2024-03-06T00:45:41;91094.22;;;-1.89;69.19
83896;BME280;74045;42.812;74.638;2024-03-06T00:48:07;91094.97;;;-1.89;69.31
83896;BME280;74045;42.812;74.638;2024-03-06T00:50:33;91067.91;;;-2.04;70.55
83896;BME280;74045;42.812;74.638;2024-03-06T00:52:59;91084.81;;;-1.94;69.96
83896;BME280;74045;42.812;74.638;2024-03-06T00:55:25;91099.81;;;-1.99;70.34
83896;BME280;74045;42.812;74.638;2024-03-06T00:57:50;91081.91;;;-2.05;70.70
83896;BME280;74045;42.812;74.638;2024-03-06T01:00:16;91090.97;;;-2.11;71.11
83896;BME280;74045;42.812;74.638;2024-03-06T01:02:43;90988.44;;;-2.89;71.04
83896;BME280;74045;42.812;74.638;2024-03-06T01:05:08;91074.47;;;-2.31;71.85
83896;BME280;74045;42.812;74.638;2024-03-06T01:07:37;91085.91;;;-2.32;71.78
83896;BME280;74045;42.812;74.638;2024-03-06T01:10:03;91098.31;;;-2.37;71.70
83896;BME280;74045;42.812;74.638;2024-03-06T01:12:29;91097.09;;;-2.40;71.89
83896;BME280;74045;42.812;74.638;2024-03-06T01:14:55;91091.84;;;-2.43;71.48
83896;BME280;74045;42.812;74.638;2024-03-06T01:17:21;91086.31;;;-2.54;71.15
83896;BME280;74045;42.812;74.638;2024-03-06T01:19:47;91095.38;;;-2.48;71.73
83896;BME280;74045;42.812;74.638;2024-03-06T01:22:13;91042.91;;;-2.94;70.89
83896;BME280;74045;42.812;74.638;2024-03-06T01:24:39;91053.19;;;-2.85;71.36
83896;BME280;74045;42.812;74.638;2024-03-06T01:27:05;91104.22;;;-2.49;70.93
83896;BME280;74045;42.812;74.638;2024-03-06T01:29:31;91087.72;;;-2.57;71.24
83896;BME280;74045;42.812;74.638;2024-03-06T01:31:58;91108.31;;;-2.48;70.72
83896;BME280;74045;42.812;74.638;2024-03-06T01:34:24;91105.59;;;-2.52;70.28
83896;BME280;74045;42.812;74.638;2024-03-06T01:36:53;91116.16;;;-2.44;70.77
83896;BME280;74045;42.812;74.638;2024-03-06T01:39:19;91132.13;;;-2.42;70.32
83896;BME280;74045;42.812;74.638;2024-03-06T01:41:54;91099.03;;;-2.49;70.47
83896;BME280;74045;42.812;74.638;2024-03-06T01:44:20;91115.88;;;-2.31;69.80
83896;BME280;74045;42.812;74.638;2024-03-06T01:46:46;91106.41;;;-2.27;68.85
83896;BME280;74045;42.812;74.638;2024-03-06T01:49:18;91109.53;;;-2.21;69.17
83896;BME280;74045;42.812;74.638;2024-03-06T01:51:50;91118.81;;;-2.08;68.79
83896;BME280;74045;42.812;74.638;2024-03-06T01:54:17;91090.03;;;-2.18;68.04
83896;BME280;74045;42.812;74.638;2024-03-06T01:56:45;91122.25;;;-1.91;67.93
83896;BME280;74045;42.812;74.638;2024-03-06T01:59:21;91109.00;;;-1.90;67.69
83896;BME280;74045;42.812;74.638;2024-03-06T02:01:52;91117.84;;;-1.78;67.56
83896;BME280;74045;42.812;74.638;2024-03-06T02:04:19;91118.38;;;-1.73;67.14
83896;BME280;74045;42.812;74.638;2024-03-06T02:06:46;91020.59;;;-2.29;67.14
83896;BME280;74045;42.812;74.638;2024-03-06T02:09:12;91058.09;;;-1.98;67.08
83896;BME280;74045;42.812;74.638;2024-03-06T02:11:40;91119.78;;;-1.51;66.91
83896;BME280;74045;42.812;74.638;2024-03-06T02:14:07;91118.47;;;-1.45;66.38
83896;BME280;74045;42.812;74.638;2024-03-06T02:16:36;91126.84;;;-1.36;66.47
83896;BME280;74045;42.812;74.638;2024-03-06T02:19:01;91128.56;;;-1.27;66.30
83896;BME280;74045;42.812;74.638;2024-03-06T02:21:29;91123.16;;;-1.22;65.80
83896;BME280;74045;42.812;74.638;2024-03-06T02:23:54;91105.47;;;-1.20;65.99
83896;BME280;74045;42.812;74.638;2024-03-06T02:26:21;91113.63;;;-1.06;66.60
83896;BME280;74045;42.812;74.638;2024-03-06T02:28:50;91101.06;;;-1.04;66.44
83896;BME280;74045;42.812;74.638;2024-03-06T02:31:17;91103.44;;;-0.99;66.61
83896;BME280;74045;42.812;74.638;2024-03-06T02:33:46;91114.19;;;-0.84;65.95
83896;BME280;74045;42.812;74.638;2024-03-06T02:36:13;91109.84;;;-0.80;65.52
83896;BME280;74045;42.812;74.638;2024-03-06T02:38:40;91082.88;;;-0.92;66.17
83896;BME280;74045;42.812;74.638;2024-03-06T02:41:06;91104.09;;;-0.74;65.46
83896;BME280;74045;42.812;74.638;2024-03-06T02:43:32;91105.69;;;-0.69;66.02
83896;BME280;74045;42.812;74.638;2024-03-06T02:45:58;91116.91;;;-0.65;65.54
83896;BME280;74045;42.812;74.638;2024-03-06T02:48:24;91112.16;;;-0.63;66.09
83896;BME280;74045;42.812;74.638;2024-03-06T02:50:50;91108.56;;;-0.58;65.85
83896;BME280;74045;42.812;74.638;2024-03-06T02:53:16;91109.75;;;-0.56;66.11
83896;BME280;74045;42.812;74.638;2024-03-06T02:55:50;91111.75;;;-0.49;66.08
83896;BME280;74045;42.812;74.638;2024-03-06T02:58:15;91112.94;;;-0.47;66.30
83896;BME280;74045;42.812;74.638;2024-03-06T03:00:44;91114.53;;;-0.42;66.06
83896;BME280;74045;42.812;74.638;2024-03-06T03:03:10;91128.03;;;-0.36;66.27
83896;BME280;74045;42.812;74.638;2024-03-06T03:05:39;91105.97;;;-0.42;66.20
83896;BME280;74045;42.812;74.638;2024-03-06T03:08:08;91119.41;;;-0.25;66.10
83896;BME280;74045;42.812;74.638;2024-03-06T03:10:34;91116.66;;;-0.16;66.26
83896;BME280;74045;42.812;74.638;2024-03-06T03:13:00;91096.81;;;-0.24;66.34
83896;BME280;74045;42.812;74.638;2024-03-06T03:15:25;91124.84;;;0.02;66.00
83896;BME280;74045;42.812;74.638;2024-03-06T03:17:51;91020.75;;;-0.56;66.37
83896;BME280;74045;42.812;74.638;2024-03-06T03:20:17;91111.88;;;0.18;66.13
83896;BME280;74045;42.812;74.638;2024-03-06T03:22:43;91046.56;;;-0.16;65.87
83896;BME280;74045;42.812;74.638;2024-03-06T03:25:10;91107.66;;;0.29;65.47
83896;BME280;74045;42.812;74.638;2024-03-06T03:27:39;91119.38;;;0.39;65.42
83896;BME280;74045;42.812;74.638;2024-03-06T03:30:09;91115.34;;;0.41;65.16
83896;BME280;74045;42.812;74.638;2024-03-06T03:32:35;91103.88;;;0.42;65.57
83896;BME280;74045;42.812;74.638;2024-03-06T03:35:03;91111.06;;;0.49;65.34
83896;BME280;74045;42.812;74.638;2024-03-06T03:37:29;91113.75;;;0.53;65.26
83896;BME280;74045;42.812;74.638;2024-03-06T03:39:55;91099.00;;;0.57;66.31
83896;BME280;74045;42.812;74.638;2024-03-06T03:42:20;91084.75;;;0.51;66.26
83896;BME280;74045;42.812;74.638;2024-03-06T03:44:46;91048.06;;;0.36;66.23
83896;BME280;74045;42.812;74.638;2024-03-06T03:47:12;91117.34;;;0.83;65.70
83896;BME280;74045;42.812;74.638;2024-03-06T03:49:38;91110.13;;;0.93;65.84
83896;BME280;74045;42.812;74.638;2024-03-06T03:52:04;91102.41;;;0.96;66.52
83896;BME280;74045;42.812;74.638;2024-03-06T03:54:30;91068.63;;;0.80;66.63
83896;BME280;74045;42.812;74.638;2024-03-06T03:56:55;91071.94;;;0.97;66.27
83896;BME280;74045;42.812;74.638;2024-03-06T03:59:21;91108.88;;;1.25;66.59
83896;BME280;74045;42.812;74.638;2024-03-06T04:01:47;91102.72;;;1.33;65.91
83896;BME280;74045;42.812;74.638;2024-03-06T04:04:13;91102.50;;;1.42;66.03
83896;BME280;74045;42.812;74.638;2024-03-06T04:06:39;91110.94;;;1.55;66.05
83896;BME280;74045;42.812;74.638;2024-03-06T04:09:04;91111.47;;;1.64;65.50
83896;BME280;74045;42.812;74.638;2024-03-06T04:11:30;91093.47;;;1.55;64.81
83896;BME280;74045;42.812;74.638;2024-03-06T04:13:59;91102.09;;;1.83;64.90
83896;BME280;74045;42.812;74.638;2024-03-06T04:16:25;91106.25;;;1.87;64.89
83896;BME280;74045;42.812;74.638;2024-03-06T04:18:51;91090.72;;;1.91;64.96
83896;BME280;74045;42.812;74.638;2024-03-06T04:21:17;91100.25;;;2.06;63.54
83896;BME280;74045;42.812;74.638;2024-03-06T04:23:43;91104.75;;;2.09;63.40
83896;BME280;74045;42.812;74.638;2024-03-06T04:26:09;91100.75;;;2.15;63.42
83896;BME280;74045;42.812;74.638;2024-03-06T04:28:35;91107.28;;;2.29;63.24
83896;BME280;74045;42.812;74.638;2024-03-06T04:31:01;91106.72;;;2.39;63.00
83896;BME280;74045;42.812;74.638;2024-03-06T04:33:26;91111.94;;;2.39;63.13
83896;BME280;74045;42.812;74.638;2024-03-06T04:35:52;91109.72;;;2.41;63.14
83896;BME280;74045;42.812;74.638;2024-03-06T04:38:18;91106.81;;;2.46;63.75
83896;BME280;74045;42.812;74.638;2024-03-06T04:40:43;91088.16;;;2.44;62.78
83896;BME280;74045;42.812;74.638;2024-03-06T04:43:10;91104.75;;;2.59;62.73
83896;BME280;74045;42.812;74.638;2024-03-06T04:45:36;91096.28;;;2.65;63.13
83896;BME280;74045;42.812;74.638;2024-03-06T04:48:02;91099.69;;;2.69;62.26
83896;BME280;74045;42.812;74.638;2024-03-06T04:50:28;91090.78;;;2.74;62.51
83896;BME280;74045;42.812;74.638;2024-03-06T04:52:54;91097.28;;;2.84;62.53
83896;BME280;74045;42.812;74.638;2024-03-06T04:55:19;91104.38;;;2.87;62.18
83896;BME280;74045;42.812;74.638;2024-03-06T04:57:48;91102.94;;;2.89;62.06
83896;BME280;74045;42.812;74.638;2024-03-06T05:00:15;91018.09;;;2.39;62.12
83896;BME280;74045;42.812;74.638;2024-03-06T05:02:41;91102.97;;;2.93;61.74
83896;BME280;74045;42.812;74.638;2024-03-06T05:05:07;91095.50;;;2.91;62.07
83896;BME280;74045;42.812;74.638;2024-03-06T05:07:36;91051.94;;;2.65;61.65
83896;BME280;74045;42.812;74.638;2024-03-06T05:10:02;91106.13;;;3.06;61.80
83896;BME280;74045;42.812;74.638;2024-03-06T05:12:28;91106.94;;;3.13;61.44
83896;BME280;74045;42.812;74.638;2024-03-06T05:14:54;91100.22;;;3.12;60.09
83896;BME280;74045;42.812;74.638;2024-03-06T05:17:20;91077.72;;;3.01;60.72
83896;BME280;74045;42.812;74.638;2024-03-06T05:19:47;91096.91;;;3.16;60.93
83896;BME280;74045;42.812;74.638;2024-03-06T05:22:14;91095.91;;;3.27;60.84
83896;BME280;74045;42.812;74.638;2024-03-06T05:24:41;91102.00;;;3.39;60.76
83896;BME280;74045;42.812;74.638;2024-03-06T05:27:07;91089.00;;;3.42;60.82
83896;BME280;74045;42.812;74.638;2024-03-06T05:29:35;91086.47;;;3.49;59.93
83896;BME280;74045;42.812;74.638;2024-03-06T05:32:02;91093.97;;;3.54;59.28
83896;BME280;74045;42.812;74.638;2024-03-06T05:34:30;91095.16;;;3.61;59.18
83896;BME280;74045;42.812;74.638;2024-03-06T05:36:55;91090.34;;;3.63;59.18
83896;BME280;74045;42.812;74.638;2024-03-06T05:39:21;91088.19;;;3.72;58.77
83896;BME280;74045;42.812;74.638;2024-03-06T05:41:47;91011.94;;;3.18;58.74
83896;BME280;74045;42.812;74.638;2024-03-06T05:44:12;91085.25;;;3.77;57.80
83896;BME280;74045;42.812;74.638;2024-03-06T05:46:38;91082.63;;;3.77;57.62
83896;BME280;74045;42.812;74.638;2024-03-06T05:49:04;91093.97;;;3.92;57.83
83896;BME280;74045;42.812;74.638;2024-03-06T05:51:30;91041.91;;;3.72;58.47
83896;BME280;74045;42.812;74.638;2024-03-06T05:53:56;91062.97;;;3.90;58.34
83896;BME280;74045;42.812;74.638;2024-03-06T05:56:22;91087.03;;;4.10;58.82
83896;BME280;74045;42.812;74.638;2024-03-06T05:58:48;90876.59;;;2.79;58.22
83896;BME280;74045;42.812;74.638;2024-03-06T06:01:18;91078.97;;;4.26;59.70
83896;BME280;74045;42.812;74.638;2024-03-06T06:03:48;91062.47;;;4.22;58.33
83896;BME280;74045;42.812;74.638;2024-03-06T06:06:17;91086.94;;;4.47;57.38
83896;BME280;74045;42.812;74.638;2024-03-06T06:08:45;91051.03;;;4.37;56.65
83896;BME280;74045;42.812;74.638;2024-03-06T06:11:11;91072.06;;;4.55;56.88
83896;BME280;74045;42.812;74.638;2024-03-06T06:13:37;91052.22;;;4.51;56.38
83896;BME280;74045;42.812;74.638;2024-03-06T06:16:05;91074.75;;;4.66;55.45
83896;BME280;74045;42.812;74.638;2024-03-06T06:18:31;91077.44;;;4.80;55.94
83896;BME280;74045;42.812;74.638;2024-03-06T06:21:00;91073.69;;;4.81;54.87
83896;BME280;74045;42.812;74.638;2024-03-06T06:23:26;91072.59;;;4.86;55.07
83896;BME280;74045;42.812;74.638;2024-03-06T06:25:52;91066.22;;;4.83;54.84
83896;BME280;74045;42.812;74.638;2024-03-06T06:28:18;91056.16;;;4.85;54.60
83896;BME280;74045;42.812;74.638;2024-03-06T06:30:43;91062.94;;;5.01;54.42
83896;BME280;74045;42.812;74.638;2024-03-06T06:33:09;91053.59;;;5.00;53.60
83896;BME280;74045;42.812;74.638;2024-03-06T06:35:35;91062.25;;;5.11;53.02
83896;BME280;74045;42.812;74.638;2024-03-06T06:38:01;91050.28;;;5.10;54.52
83896;BME280;74045;42.812;74.638;2024-03-06T06:40:27;91062.69;;;5.24;53.19
83896;BME280;74045;42.812;74.638;2024-03-06T06:42:54;91067.53;;;5.29;52.91
83896;BME280;74045;42.812;74.638;2024-03-06T06:45:20;91063.47;;;5.35;53.00
83896;BME280;74045;42.812;74.638;2024-03-06T06:47:48;91061.63;;;5.46;53.86
83896;BME280;74045;42.812;74.638;2024-03-06T06:50:14;91053.44;;;5.62;53.58
83896;BME280;74045;42.812;74.638;2024-03-06T06:52:40;91051.97;;;5.75;53.56
83896;BME280;74045;42.812;74.638;2024-03-06T06:55:06;91063.59;;;5.89;53.75
83896;BME280;74045;42.812;74.638;2024-03-06T06:57:52;91049.78;;;6.06;55.37
83896;BME280;74045;42.812;74.638;2024-03-06T07:00:18;91040.78;;;6.07;54.62
83896;BME280;74045;42.812;74.638;2024-03-06T07:02:44;91039.28;;;6.17;53.77
83896;BME280;74045;42.812;74.638;2024-03-06T07:05:11;91055.41;;;6.15;53.94
83896;BME280;74045;42.812;74.638;2024-03-06T07:07:37;91048.28;;;6.12;53.90
83896;BME280;74045;42.812;74.638;2024-03-06T07:10:04;91028.81;;;6.02;54.17
83896;BME280;74045;42.812;74.638;2024-03-06T07:12:30;91034.41;;;6.15;53.52
83896;BME280;74045;42.812;74.638;2024-03-06T07:14:56;90971.09;;;5.84;53.88
83896;BME280;74045;42.812;74.638;2024-03-06T07:17:22;91024.28;;;6.24;53.83
83896;BME280;74045;42.812;74.638;2024-03-06T07:19:48;90985.72;;;6.00;54.17
83896;BME280;74045;42.812;74.638;2024-03-06T07:22:13;90963.59;;;5.87;54.00
83896;BME280;74045;42.812;74.638;2024-03-06T07:24:40;90963.97;;;5.92;53.50
83896;BME280;74045;42.812;74.638;2024-03-06T07:27:07;90968.88;;;5.97;53.61
83896;BME280;74045;42.812;74.638;2024-03-06T07:29:34;91034.03;;;6.45;53.61
83896;BME280;74045;42.812;74.638;2024-03-06T07:32:01;91026.53;;;6.47;54.09
83896;BME280;74045;42.812;74.638;2024-03-06T07:34:27;91017.91;;;6.47;53.79
83896;BME280;74045;42.812;74.638;2024-03-06T07:36:53;91029.53;;;6.46;54.08
83896;BME280;74045;42.812;74.638;2024-03-06T07:39:20;91007.03;;;6.48;54.04
83896;BME280;74045;42.812;74.638;2024-03-06T07:41:46;90955.72;;;6.19;53.52
83896;BME280;74045;42.812;74.638;2024-03-06T07:44:12;91013.03;;;6.56;54.19
83896;BME280;74045;42.812;74.638;2024-03-06T07:46:38;91013.78;;;6.53;53.33
83896;BME280;74045;42.812;74.638;2024-03-06T07:49:04;91010.78;;;6.51;52.91
83896;BME280;74045;42.812;74.638;2024-03-06T07:51:31;91014.53;;;6.54;52.55
83896;BME280;74045;42.812;74.638;2024-03-06T07:53:56;91012.63;;;6.58;52.56
83896;BME280;74045;42.812;74.638;2024-03-06T07:56:26;91012.25;;;6.59;52.67
83896;BME280;74045;42.812;74.638;2024-03-06T07:58:52;91001.38;;;6.57;52.26
83896;BME280;74045;42.812;74.638;2024-03-06T08:01:19;90984.53;;;6.51;51.58
83896;BME280;74045;42.812;74.638;2024-03-06T08:03:46;90977.41;;;6.59;51.67
83896;BME280;74045;42.812;74.638;2024-03-06T08:06:12;90996.47;;;6.73;52.27
83896;BME280;74045;42.812;74.638;2024-03-06T08:08:42;90895.41;;;6.15;52.83
83896;BME280;74045;42.812;74.638;2024-03-06T08:11:11;90987.47;;;6.82;51.72
83896;BME280;74045;42.812;74.638;2024-03-06T08:13:38;90985.56;;;6.86;52.38
83896;BME280;74045;42.812;74.638;2024-03-06T08:16:05;90984.78;;;6.96;52.95
83896;BME280;74045;42.812;74.638;2024-03-06T08:18:33;90995.63;;;7.02;52.44
83896;BME280;74045;42.812;74.638;2024-03-06T08:21:00;90991.19;;;6.88;52.26
83896;BME280;74045;42.812;74.638;2024-03-06T08:23:26;90995.66;;;6.98;52.30
83896;BME280;74045;42.812;74.638;2024-03-06T08:25:51;90989.25;;;6.99;52.08
83896;BME280;74045;42.812;74.638;2024-03-06T08:28:21;90989.63;;;7.01;51.97
83896;BME280;74045;42.812;74.638;2024-03-06T08:30:46;90967.94;;;6.83;51.74
83896;BME280;74045;42.812;74.638;2024-03-06T08:33:12;90979.91;;;6.98;51.97
83896;BME280;74045;42.812;74.638;2024-03-06T08:35:41;90990.38;;;7.02;51.46
83896;BME280;74045;42.812;74.638;2024-03-06T08:38:07;90994.88;;;7.05;51.71
83896;BME280;74045;42.812;74.638;2024-03-06T08:40:32;90951.47;;;6.79;51.52
83896;BME280;74045;42.812;74.638;2024-03-06T08:42:59;90985.84;;;7.09;51.56
83896;BME280;74045;42.812;74.638;2024-03-06T08:45:24;90990.31;;;7.16;51.72
83896;BME280;74045;42.812;74.638;2024-03-06T08:47:50;90987.31;;;7.21;52.17
83896;BME280;74045;42.812;74.638;2024-03-06T08:50:17;90983.50;;;7.29;51.90
83896;BME280;74045;42.812;74.638;2024-03-06T08:52:43;90982.00;;;7.32;52.09
83896;BME280;74045;42.812;74.638;2024-03-06T08:55:09;90981.25;;;7.28;51.81
83896;BME280;74045;42.812;74.638;2024-03-06T08:57:35;90993.19;;;7.43;51.17
83896;BME280;74045;42.812;74.638;2024-03-06T09:00:03;90989.75;;;7.53;51.70
83896;BME280;74045;42.812;74.638;2024-03-06T09:02:29;90989.00;;;7.56;50.88
83896;BME280;74045;42.812;74.638;2024-03-06T09:04:56;90911.63;;;6.98;51.60
83896;BME280;74045;42.812;74.638;2024-03-06T09:07:21;90989.41;;;7.51;52.03
83896;BME280;74045;42.812;74.638;2024-03-06T09:09:50;90933.31;;;7.13;51.65
83896;BME280;74045;42.812;74.638;2024-03-06T09:12:17;90987.88;;;7.50;51.30
83896;BME280;74045;42.812;74.638;2024-03-06T09:14:43;90938.19;;;7.11;50.88
83896;BME280;74045;42.812;74.638;2024-03-06T09:17:10;90996.56;;;7.44;50.31
83896;BME280;74045;42.812;74.638;2024-03-06T09:19:38;91000.34;;;7.43;51.00
83896;BME280;74045;42.812;74.638;2024-03-06T09:22:04;91005.91;;;7.52;51.44
83896;BME280;74045;42.812;74.638;2024-03-06T09:24:30;90999.84;;;7.58;51.22
83896;BME280;74045;42.812;74.638;2024-03-06T09:26:56;90998.31;;;7.68;51.29
83896;BME280;74045;42.812;74.638;2024-03-06T09:29:21;91012.50;;;7.81;51.52
83896;BME280;74045;42.812;74.638;2024-03-06T09:31:48;91004.94;;;7.91;51.00
83896;BME280;74045;42.812;74.638;2024-03-06T09:34:14;91000.78;;;7.93;51.30
83896;BME280;74045;42.812;74.638;2024-03-06T09:36:49;91006.81;;;7.90;50.78
83896;BME280;74045;42.812;74.638;2024-03-06T09:39:16;91002.28;;;7.91;50.87
83896;BME280;74045;42.812;74.638;2024-03-06T09:41:49;91007.50;;;7.98;50.40
83896;BME280;74045;42.812;74.638;2024-03-06T09:44:19;91009.00;;;7.99;50.95
83896;BME280;74045;42.812;74.638;2024-03-06T09:46:46;90996.63;;;7.92;51.56
83896;BME280;74045;42.812;74.638;2024-03-06T09:49:16;91013.91;;;7.97;51.51
83896;BME280;74045;42.812;74.638;2024-03-06T09:51:46;91014.25;;;7.99;51.20
83896;BME280;74045;42.812;74.638;2024-03-06T09:54:13;91013.16;;;7.96;51.37
83896;BME280;74045;42.812;74.638;2024-03-06T09:56:43;91012.41;;;7.92;52.02
83896;BME280;74045;42.812;74.638;2024-03-06T09:59:11;90998.97;;;7.83;52.47
83896;BME280;74045;42.812;74.638;2024-03-06T10:01:57;90996.41;;;7.76;52.85
83896;BME280;74045;42.812;74.638;2024-03-06T10:04:27;91016.97;;;7.88;52.79
83896;BME280;74045;42.812;74.638;2024-03-06T10:06:54;91008.47;;;7.66;52.01
83896;BME280;74045;42.812;74.638;2024-03-06T10:09:21;91011.88;;;7.59;52.59
83896;BME280;74045;42.812;74.638;2024-03-06T10:11:47;91024.28;;;7.55;52.50
83896;BME280;74045;42.812;74.638;2024-03-06T10:14:13;90931.91;;;6.90;53.29
83896;BME280;74045;42.812;74.638;2024-03-06T10:16:54;90965.97;;;7.08;52.39
83896;BME280;74045;42.812;74.638;2024-03-06T10:19:25;91029.31;;;7.28;52.09
83896;BME280;74045;42.812;74.638;2024-03-06T10:21:53;90976.19;;;6.78;52.54
83896;BME280;74045;42.812;74.638;2024-03-06T10:26:52;91030.88;;;7.08;51.58
83896;BME280;74045;42.812;74.638;2024-03-06T10:29:21;90910.03;;;6.13;51.51
83896;BME280;74045;42.812;74.638;2024-03-06T10:31:57;91035.78;;;7.02;51.09
83896;BME280;74045;42.812;74.638;2024-03-06T10:34:27;91034.66;;;6.96;50.86
83896;BME280;74045;42.812;74.638;2024-03-06T10:37:02;90925.75;;;6.20;51.08
83896;BME280;74045;42.812;74.638;2024-03-06T10:39:33;91041.06;;;6.95;49.80
83896;BME280;74045;42.812;74.638;2024-03-06T10:42:06;91028.72;;;6.78;49.89
83896;BME280;74045;42.812;74.638;2024-03-06T10:44:34;90989.78;;;6.51;49.84
83896;BME280;74045;42.812;74.638;2024-03-06T10:47:01;91046.72;;;6.86;50.27
83896;BME280;74045;42.812;74.638;2024-03-06T10:49:29;91032.09;;;6.75;49.96
83896;BME280;74045;42.812;74.638;2024-03-06T10:52:04;91045.22;;;6.82;49.32
83896;BME280;74045;42.812;74.638;2024-03-06T10:54:34;91063.59;;;6.75;49.13
83896;BME280;74045;42.812;74.638;2024-03-06T10:57:01;91059.50;;;6.63;49.46
83896;BME280;74045;42.812;74.638;2024-03-06T10:59:28;91054.25;;;6.59;49.80
83896;BME280;74045;42.812;74.638;2024-03-06T11:01:59;91063.63;;;6.60;50.44
83896;BME280;74045;42.812;74.638;2024-03-06T11:04:31;91059.13;;;6.61;50.83
83896;BME280;74045;42.812;74.638;2024-03-06T11:07:01;90964.00;;;6.07;50.74
83896;BME280;74045;42.812;74.638;2024-03-06T11:09:34;91061.38;;;6.69;50.06
83896;BME280;74045;42.812;74.638;2024-03-06T11:12:00;91040.75;;;6.57;50.22
83896;BME280;74045;42.812;74.638;2024-03-06T11:14:31;91065.50;;;6.70;50.38
83896;BME280;74045;42.812;74.638;2024-03-06T11:17:06;91061.75;;;6.68;50.04
83896;BME280;74045;42.812;74.638;2024-03-06T11:28:17;91056.88;;;6.48;50.14
83896;BME280;74045;42.812;74.638;2024-03-06T11:30:47;91064.78;;;6.45;50.06
83896;BME280;74045;42.812;74.638;2024-03-06T11:33:16;91023.94;;;6.08;50.42
83896;BME280;74045;42.812;74.638;2024-03-06T11:38:47;91074.53;;;6.19;50.35
83896;BME280;74045;42.812;74.638;2024-03-06T11:41:13;90984.16;;;5.49;51.94
83896;BME280;74045;42.812;74.638;2024-03-06T11:43:42;91076.75;;;6.03;51.23
83896;BME280;74045;42.812;74.638;2024-03-06T11:46:09;91013.72;;;5.46;51.75
83896;BME280;74045;42.812;74.638;2024-03-06T11:48:38;91082.31;;;5.87;52.50
83896;BME280;74045;42.812;74.638;2024-03-06T11:51:05;91053.81;;;5.68;52.93
83896;BME280;74045;42.812;74.638;2024-03-06T11:53:33;91083.41;;;5.79;53.04
83896;BME280;74045;42.812;74.638;2024-03-06T11:56:07;91087.53;;;5.69;53.25
83896;BME280;74045;42.812;74.638;2024-03-06T11:58:34;91078.09;;;5.54;53.97
83896;BME280;74045;42.812;74.638;2024-03-06T12:00:59;90987.75;;;4.90;54.62
83896;BME280;74045;42.812;74.638;2024-03-06T12:03:27;91066.84;;;5.39;54.45
83896;BME280;74045;42.812;74.638;2024-03-06T12:05:53;91080.28;;;5.37;54.83
83896;BME280;74045;42.812;74.638;2024-03-06T12:08:19;91104.25;;;5.39;55.25
83896;BME280;74045;42.812;74.638;2024-03-06T12:10:46;91106.47;;;5.30;54.57
83896;BME280;74045;42.812;74.638;2024-03-06T12:13:13;91008.19;;;4.63;55.69
83896;BME280;74045;42.812;74.638;2024-03-06T12:15:42;91092.97;;;5.21;56.48
83896;BME280;74045;42.812;74.638;2024-03-06T12:18:08;91105.34;;;5.24;56.30
83896;BME280;74045;42.812;74.638;2024-03-06T12:20:34;91107.91;;;5.21;56.35
83896;BME280;74045;42.812;74.638;2024-03-06T12:22:59;91096.69;;;5.13;56.89
83896;BME280;74045;42.812;74.638;2024-03-06T12:25:26;91085.78;;;5.04;56.62
83896;BME280;74045;42.812;74.638;2024-03-06T12:27:54;91018.59;;;4.53;57.15
83896;BME280;74045;42.812;74.638;2024-03-06T12:30:21;91113.84;;;5.07;56.82
83896;BME280;74045;42.812;74.638;2024-03-06T12:33:00;91095.41;;;4.89;57.52
83896;BME280;74045;42.812;74.638;2024-03-06T12:35:30;91109.63;;;4.88;57.96
83896;BME280;74045;42.812;74.638;2024-03-06T12:37:56;91113.28;;;4.72;58.26
83896;BME280;74045;42.812;74.638;2024-03-06T12:40:22;91100.47;;;4.57;58.38
83896;BME280;74045;42.812;74.638;2024-03-06T12:42:48;91116.53;;;4.59;58.89
83896;BME280;74045;42.812;74.638;2024-03-06T12:45:15;91112.03;;;4.56;59.09
83896;BME280;74045;42.812;74.638;2024-03-06T12:47:42;91123.25;;;4.56;59.39
83896;BME280;74045;42.812;74.638;2024-03-06T12:50:09;91123.97;;;4.53;60.43
83896;BME280;74045;42.812;74.638;2024-03-06T12:52:36;91099.16;;;4.33;60.20
83896;BME280;74045;42.812;74.638;2024-03-06T12:55:02;91045.00;;;3.81;60.65
83896;BME280;74045;42.812;74.638;2024-03-06T12:57:31;91119.28;;;4.25;60.77
83896;BME280;74045;42.812;74.638;2024-03-06T12:59:57;91123.00;;;4.20;61.15
83896;BME280;74045;42.812;74.638;2024-03-06T13:02:22;91135.28;;;4.20;61.34
83896;BME280;74045;42.812;74.638;2024-03-06T13:04:48;91121.38;;;4.09;61.19
83896;BME280;74045;42.812;74.638;2024-03-06T13:07:14;91138.97;;;4.12;61.29
83896;BME280;74045;42.812;74.638;2024-03-06T13:09:40;91139.28;;;4.07;61.22
83896;BME280;74045;42.812;74.638;2024-03-06T13:12:06;91139.25;;;4.03;61.36